WMT137 LUKK-LKPR
Flight info
| Callsign | WMT137 |
|---|---|
| Flight time | N/A |
| Altitude | 38000 |
| Route | NUNTA DCT KERLO DCT REPTO DCT PITOK DCT KREMI DCT VALPI DCT TUMKA DCT VLM |
| Aircraft | A321/M-VGDW/C |
Departure
| Time | 2026-05-09 08:56 |
|---|---|
| Airport | Chişinău International Airport (LUKK) |
Arrival
| Time | N/A |
|---|---|
| Airport | Václav Havel Airport Prague (LKPR) |
| Time | Latitude | Longitude | Altitude | Speed | Heading |
|---|---|---|---|---|---|
| 2026-05-09 08:34 | 46.93365 | 28.93667 | 343 ft | 0 kts | 6° |
| 2026-05-09 08:49 | 46.93367 | 28.93667 | 343 ft | 1 kts | 6° |
| 2026-05-09 08:49 | 46.93387 | 28.93669 | 343 ft | 4 kts | 358° |
| 2026-05-09 08:50 | 46.93409 | 28.93642 | 343 ft | 5 kts | 283° |
| 2026-05-09 08:50 | 46.93414 | 28.93575 | 343 ft | 8 kts | 276° |
| 2026-05-09 08:50 | 46.93404 | 28.93491 | 343 ft | 9 kts | 216° |
| 2026-05-09 08:50 | 46.93331 | 28.93470 | 343 ft | 12 kts | 187° |
| 2026-05-09 08:51 | 46.93239 | 28.93455 | 343 ft | 15 kts | 186° |
| 2026-05-09 08:51 | 46.93159 | 28.93382 | 343 ft | 15 kts | 269° |
| 2026-05-09 08:51 | 46.93170 | 28.93215 | 343 ft | 18 kts | 276° |
| 2026-05-09 08:51 | 46.93184 | 28.93023 | 343 ft | 20 kts | 277° |
| 2026-05-09 08:52 | 46.93201 | 28.92806 | 343 ft | 23 kts | 276° |
| 2026-05-09 08:52 | 46.93219 | 28.92567 | 343 ft | 25 kts | 276° |
| 2026-05-09 08:52 | 46.93236 | 28.92349 | 343 ft | 21 kts | 275° |
| 2026-05-09 08:52 | 46.93252 | 28.92139 | 343 ft | 12 kts | 277° |
| 2026-05-09 08:53 | 46.93238 | 28.92041 | 343 ft | 10 kts | 202° |
| 2026-05-09 08:53 | 46.93176 | 28.92014 | 343 ft | 11 kts | 196° |
| 2026-05-09 08:53 | 46.93096 | 28.91986 | 343 ft | 13 kts | 187° |
| 2026-05-09 08:53 | 46.92998 | 28.91989 | 343 ft | 15 kts | 177° |
| 2026-05-09 08:54 | 46.92884 | 28.91996 | 343 ft | 15 kts | 178° |
| 2026-05-09 08:54 | 46.92822 | 28.91998 | 343 ft | 10 kts | 179° |
| 2026-05-09 08:54 | 46.92759 | 28.92021 | 343 ft | 8 kts | 128° |
| 2026-05-09 08:54 | 46.92752 | 28.92063 | 343 ft | 0 kts | 87° |
| 2026-05-09 08:55 | 46.92753 | 28.92087 | 343 ft | 11 kts | 89° |
| 2026-05-09 08:55 | 46.92765 | 28.92605 | 343 ft | 93 kts | 88° |
| 2026-05-09 08:56 | 46.92799 | 28.93922 | 344 ft | 163 kts | 87° |
| 2026-05-09 08:56 | 46.92848 | 28.95598 | 1101 ft | 157 kts | 86° |
| 2026-05-09 08:56 | 46.92909 | 28.97162 | 1941 ft | 153 kts | 86° |
| 2026-05-09 08:56 | 46.92971 | 28.98747 | 2452 ft | 162 kts | 87° |
| 2026-05-09 08:57 | 46.93021 | 29.00490 | 2663 ft | 181 kts | 89° |
| 2026-05-09 08:57 | 46.93060 | 29.02425 | 2951 ft | 198 kts | 89° |
| 2026-05-09 08:57 | 46.93115 | 29.04516 | 3321 ft | 213 kts | 88° |
| 2026-05-09 08:57 | 46.93463 | 29.06713 | 3551 ft | 236 kts | 63° |
| 2026-05-09 08:58 | 46.94625 | 29.08508 | 3852 ft | 255 kts | 29° |
| 2026-05-09 08:58 | 46.96371 | 29.09158 | 4303 ft | 267 kts | 357° |
| 2026-05-09 08:58 | 46.98142 | 29.08369 | 4943 ft | 270 kts | 329° |
| 2026-05-09 08:58 | 46.99716 | 29.06856 | 5650 ft | 273 kts | 325° |
| 2026-05-09 08:59 | 47.01259 | 29.05210 | 6328 ft | 276 kts | 315° |
| 2026-05-09 08:59 | 47.02325 | 29.02886 | 6989 ft | 277 kts | 292° |
| 2026-05-09 08:59 | 47.02971 | 29.00216 | 7665 ft | 280 kts | 286° |
| 2026-05-09 08:59 | 47.03536 | 28.97473 | 8320 ft | 283 kts | 286° |
| 2026-05-09 09:00 | 47.04146 | 28.94706 | 8972 ft | 286 kts | 288° |
| 2026-05-09 09:00 | 47.04822 | 28.91943 | 9620 ft | 289 kts | 289° |
| 2026-05-09 09:00 | 47.05525 | 28.89171 | 10273 ft | 292 kts | 289° |
| 2026-05-09 09:00 | 47.06235 | 28.86335 | 10745 ft | 302 kts | 289° |
| 2026-05-09 09:01 | 47.06962 | 28.83360 | 10976 ft | 319 kts | 288° |
| 2026-05-09 09:01 | 47.07722 | 28.80211 | 11217 ft | 335 kts | 288° |
| 2026-05-09 09:01 | 47.08514 | 28.76934 | 11628 ft | 344 kts | 288° |
| 2026-05-09 09:01 | 47.09318 | 28.73624 | 12234 ft | 346 kts | 288° |
| 2026-05-09 09:02 | 47.10128 | 28.70286 | 12831 ft | 348 kts | 288° |
| 2026-05-09 09:02 | 47.10938 | 28.66931 | 13415 ft | 350 kts | 287° |
| 2026-05-09 09:02 | 47.11451 | 28.63442 | 13973 ft | 351 kts | 273° |
| 2026-05-09 09:02 | 47.11505 | 28.59858 | 14554 ft | 352 kts | 268° |
| 2026-05-09 09:03 | 47.11429 | 28.56255 | 15107 ft | 354 kts | 266° |
| 2026-05-09 09:03 | 47.11325 | 28.52640 | 15664 ft | 356 kts | 266° |
| 2026-05-09 09:03 | 47.11243 | 28.48993 | 16206 ft | 358 kts | 267° |
| 2026-05-09 09:03 | 47.11197 | 28.45381 | 16726 ft | 360 kts | 268° |
| 2026-05-09 09:04 | 47.11169 | 28.41693 | 17245 ft | 362 kts | 268° |
| 2026-05-09 09:04 | 47.11142 | 28.37989 | 17753 ft | 364 kts | 268° |
| 2026-05-09 09:04 | 47.11103 | 28.34261 | 18249 ft | 366 kts | 268° |
| 2026-05-09 09:04 | 47.11055 | 28.30514 | 18714 ft | 369 kts | 268° |
| 2026-05-09 09:05 | 47.11003 | 28.26741 | 19169 ft | 371 kts | 268° |
| 2026-05-09 09:05 | 47.10948 | 28.22944 | 19620 ft | 373 kts | 268° |
| 2026-05-09 09:05 | 47.10896 | 28.19122 | 20050 ft | 376 kts | 268° |
| 2026-05-09 09:05 | 47.10844 | 28.15278 | 20472 ft | 378 kts | 268° |
| 2026-05-09 09:06 | 47.10791 | 28.11398 | 20885 ft | 381 kts | 267° |
| 2026-05-09 09:06 | 47.10735 | 28.07499 | 21292 ft | 384 kts | 267° |
| 2026-05-09 09:06 | 47.10679 | 28.03575 | 21683 ft | 386 kts | 267° |
| 2026-05-09 09:06 | 47.10623 | 27.99621 | 22066 ft | 389 kts | 267° |
| 2026-05-09 09:07 | 47.10562 | 27.95646 | 22449 ft | 391 kts | 267° |
| 2026-05-09 09:07 | 47.10496 | 27.91651 | 22817 ft | 393 kts | 267° |
| 2026-05-09 09:07 | 47.10436 | 27.87635 | 23169 ft | 395 kts | 268° |
| 2026-05-09 09:07 | 47.10728 | 27.83601 | 23495 ft | 400 kts | 279° |
| 2026-05-09 09:08 | 47.11378 | 27.79618 | 23847 ft | 403 kts | 283° |
| 2026-05-09 09:08 | 47.12143 | 27.75647 | 24175 ft | 405 kts | 284° |
| 2026-05-09 09:08 | 47.12931 | 27.71661 | 24509 ft | 407 kts | 284° |
| 2026-05-09 09:08 | 47.13734 | 27.67659 | 24854 ft | 409 kts | 284° |
| 2026-05-09 09:09 | 47.14539 | 27.63650 | 25187 ft | 410 kts | 284° |
| 2026-05-09 09:09 | 47.15341 | 27.59626 | 25509 ft | 412 kts | 284° |
| 2026-05-09 09:09 | 47.16141 | 27.55570 | 25826 ft | 413 kts | 284° |
| 2026-05-09 09:09 | 47.16936 | 27.51513 | 26143 ft | 414 kts | 284° |
| 2026-05-09 09:10 | 47.17734 | 27.47431 | 26437 ft | 416 kts | 284° |
| 2026-05-09 09:10 | 47.18534 | 27.43335 | 26726 ft | 418 kts | 284° |
| 2026-05-09 09:10 | 47.19341 | 27.39228 | 27030 ft | 419 kts | 284° |
| 2026-05-09 09:10 | 47.20151 | 27.35104 | 27307 ft | 420 kts | 284° |
| 2026-05-09 09:11 | 47.20961 | 27.30971 | 27596 ft | 421 kts | 284° |
| 2026-05-09 09:11 | 47.21771 | 27.26819 | 27865 ft | 423 kts | 284° |
| 2026-05-09 09:11 | 47.22577 | 27.22657 | 28126 ft | 424 kts | 283° |
| 2026-05-09 09:11 | 47.23383 | 27.18478 | 28399 ft | 425 kts | 283° |
| 2026-05-09 09:12 | 47.24191 | 27.14289 | 28652 ft | 426 kts | 283° |
| 2026-05-09 09:12 | 47.25003 | 27.10081 | 28905 ft | 427 kts | 283° |
| 2026-05-09 09:12 | 47.25817 | 27.05865 | 29145 ft | 429 kts | 283° |
| 2026-05-09 09:12 | 47.26631 | 27.01638 | 29378 ft | 430 kts | 283° |
| 2026-05-09 09:13 | 47.27444 | 26.97391 | 29606 ft | 432 kts | 283° |
| 2026-05-09 09:13 | 47.28256 | 26.93133 | 29849 ft | 432 kts | 283° |
| 2026-05-09 09:13 | 47.29072 | 26.88861 | 30064 ft | 434 kts | 283° |
| 2026-05-09 09:13 | 47.29889 | 26.84578 | 30285 ft | 435 kts | 283° |
| 2026-05-09 09:14 | 47.30705 | 26.80290 | 30504 ft | 436 kts | 283° |
| 2026-05-09 09:14 | 47.31519 | 26.75988 | 30726 ft | 436 kts | 283° |
| 2026-05-09 09:14 | 47.32331 | 26.71681 | 30926 ft | 437 kts | 283° |
| 2026-05-09 09:14 | 47.33142 | 26.67369 | 31179 ft | 436 kts | 283° |
| 2026-05-09 09:15 | 47.33951 | 26.63068 | 31478 ft | 434 kts | 283° |
| 2026-05-09 09:15 | 47.34757 | 26.58789 | 31748 ft | 433 kts | 283° |
| 2026-05-09 09:15 | 47.35562 | 26.54518 | 32015 ft | 431 kts | 283° |
| 2026-05-09 09:15 | 47.36360 | 26.50263 | 32262 ft | 430 kts | 283° |
| 2026-05-09 09:16 | 47.37151 | 26.46024 | 32527 ft | 428 kts | 283° |
| 2026-05-09 09:16 | 47.38718 | 26.37579 | 33003 ft | 426 kts | 282° |
| 2026-05-09 09:16 | 47.39494 | 26.33379 | 33263 ft | 424 kts | 282° |
| 2026-05-09 09:17 | 47.40270 | 26.29185 | 33503 ft | 422 kts | 282° |
| 2026-05-09 09:17 | 47.41042 | 26.25008 | 33709 ft | 422 kts | 282° |
| 2026-05-09 09:17 | 47.41810 | 26.20846 | 33975 ft | 419 kts | 282° |
| 2026-05-09 09:17 | 47.42572 | 26.16693 | 34169 ft | 418 kts | 282° |
| 2026-05-09 09:18 | 47.43320 | 26.12605 | 34329 ft | 418 kts | 282° |
| 2026-05-09 09:18 | 47.44077 | 26.08460 | 34512 ft | 417 kts | 282° |
| 2026-05-09 09:18 | 47.44841 | 26.04275 | 34684 ft | 417 kts | 282° |
| 2026-05-09 09:18 | 47.45595 | 26.00138 | 34838 ft | 417 kts | 282° |
| 2026-05-09 09:19 | 47.46345 | 25.95993 | 34946 ft | 418 kts | 282° |
| 2026-05-09 09:19 | 47.47091 | 25.91850 | 35106 ft | 417 kts | 282° |
| 2026-05-09 09:19 | 47.47825 | 25.87767 | 35248 ft | 417 kts | 282° |
| 2026-05-09 09:19 | 47.48582 | 25.83575 | 35389 ft | 417 kts | 282° |
| 2026-05-09 09:20 | 47.49319 | 25.79487 | 35523 ft | 417 kts | 282° |
| 2026-05-09 09:20 | 47.50060 | 25.75352 | 35657 ft | 416 kts | 282° |
| 2026-05-09 09:20 | 47.50799 | 25.71215 | 35783 ft | 416 kts | 282° |
| 2026-05-09 09:20 | 47.51541 | 25.67082 | 35897 ft | 416 kts | 282° |
| 2026-05-09 09:21 | 47.52281 | 25.62946 | 36009 ft | 416 kts | 282° |
| 2026-05-09 09:21 | 47.53016 | 25.58807 | 36123 ft | 416 kts | 282° |
| 2026-05-09 09:21 | 47.53748 | 25.54666 | 36233 ft | 416 kts | 282° |
| 2026-05-09 09:21 | 47.54480 | 25.50536 | 36341 ft | 415 kts | 282° |
| 2026-05-09 09:22 | 47.55942 | 25.42247 | 36507 ft | 416 kts | 282° |
| 2026-05-09 09:22 | 47.57396 | 25.33948 | 36650 ft | 417 kts | 282° |
| 2026-05-09 09:23 | 47.58850 | 25.25645 | 36825 ft | 417 kts | 282° |
| 2026-05-09 09:23 | 47.60296 | 25.17337 | 36982 ft | 416 kts | 282° |
| 2026-05-09 09:24 | 47.61490 | 25.10432 | 37084 ft | 416 kts | 282° |
| 2026-05-09 09:24 | 47.62927 | 25.02115 | 37219 ft | 416 kts | 282° |
| 2026-05-09 09:25 | 47.64595 | 24.92396 | 37362 ft | 416 kts | 281° |
| 2026-05-09 09:25 | 47.65774 | 24.85479 | 37434 ft | 416 kts | 281° |
| 2026-05-09 09:26 | 47.67190 | 24.77150 | 37523 ft | 416 kts | 281° |
| 2026-05-09 09:26 | 47.68598 | 24.68836 | 37640 ft | 415 kts | 281° |
| 2026-05-09 09:27 | 47.69998 | 24.60513 | 37725 ft | 415 kts | 281° |
| 2026-05-09 09:27 | 47.71391 | 24.52199 | 37797 ft | 415 kts | 281° |
| 2026-05-09 09:28 | 47.72778 | 24.43875 | 37884 ft | 414 kts | 281° |
| 2026-05-09 09:28 | 47.74155 | 24.35570 | 37950 ft | 414 kts | 281° |
| 2026-05-09 09:29 | 47.75529 | 24.27261 | 38028 ft | 413 kts | 281° |
| 2026-05-09 09:29 | 47.76890 | 24.18973 | 38070 ft | 413 kts | 281° |
| 2026-05-09 09:30 | 47.78243 | 24.10686 | 38084 ft | 413 kts | 281° |
| 2026-05-09 09:30 | 47.79253 | 24.02336 | 38070 ft | 407 kts | 270° |
| 2026-05-09 09:31 | 47.79302 | 23.93925 | 38093 ft | 407 kts | 267° |
| 2026-05-09 09:32 | 47.79310 | 23.81274 | 38059 ft | 409 kts | 269° |
| 2026-05-09 09:32 | 47.79397 | 23.72800 | 38081 ft | 409 kts | 268° |
| 2026-05-09 09:33 | 47.79437 | 23.64394 | 38123 ft | 409 kts | 268° |
| 2026-05-09 09:33 | 47.79468 | 23.55856 | 38129 ft | 411 kts | 268° |
| 2026-05-09 09:34 | 47.79504 | 23.47351 | 38129 ft | 412 kts | 268° |
| 2026-05-09 09:34 | 47.79530 | 23.38883 | 38129 ft | 413 kts | 268° |
| 2026-05-09 09:36 | 47.79570 | 23.04892 | 38042 ft | 409 kts | 268° |
| 2026-05-09 09:37 | 47.79564 | 22.96423 | 38038 ft | 410 kts | 268° |
| 2026-05-09 09:37 | 47.79552 | 22.87933 | 38036 ft | 411 kts | 268° |
| 2026-05-09 09:38 | 47.79534 | 22.79455 | 38068 ft | 409 kts | 268° |
| 2026-05-09 09:38 | 47.79510 | 22.70997 | 38084 ft | 409 kts | 267° |
| 2026-05-09 09:39 | 47.79479 | 22.62545 | 38098 ft | 408 kts | 267° |
| 2026-05-09 09:39 | 47.79448 | 22.54146 | 38067 ft | 407 kts | 267° |
| 2026-05-09 09:40 | 47.79488 | 22.45794 | 38135 ft | 403 kts | 273° |
| 2026-05-09 09:40 | 47.80886 | 22.37681 | 38045 ft | 410 kts | 289° |
| 2026-05-09 09:41 | 47.83185 | 22.29940 | 37925 ft | 414 kts | 290° |
| 2026-05-09 09:41 | 47.85545 | 22.22117 | 37771 ft | 417 kts | 291° |
| 2026-05-09 09:41 | 47.86742 | 22.18173 | 37515 ft | 419 kts | 289° |
| 2026-05-09 09:42 | 47.87782 | 22.14121 | 37298 ft | 420 kts | 287° |
| 2026-05-09 09:42 | 47.88823 | 22.10030 | 37068 ft | 423 kts | 287° |
| 2026-05-09 09:42 | 47.89917 | 22.05944 | 36830 ft | 426 kts | 288° |
| 2026-05-09 09:42 | 47.91026 | 22.01836 | 36612 ft | 428 kts | 288° |
| 2026-05-09 09:43 | 47.92124 | 21.97706 | 36381 ft | 430 kts | 287° |
| 2026-05-09 09:43 | 47.93205 | 21.93549 | 36139 ft | 430 kts | 287° |
| 2026-05-09 09:43 | 47.94277 | 21.89371 | 36104 ft | 432 kts | 286° |
| 2026-05-09 09:44 | 47.96441 | 21.80964 | 36117 ft | 435 kts | 287° |
| 2026-05-09 09:44 | 47.98624 | 21.72546 | 36119 ft | 434 kts | 287° |
| 2026-05-09 09:45 | 48.00789 | 21.64134 | 36121 ft | 434 kts | 286° |
| 2026-05-09 09:45 | 48.02944 | 21.55705 | 36120 ft | 434 kts | 287° |
| 2026-05-09 09:46 | 48.05091 | 21.47306 | 36111 ft | 432 kts | 287° |
| 2026-05-09 09:46 | 48.07221 | 21.38922 | 36100 ft | 431 kts | 286° |
| 2026-05-09 09:47 | 48.09344 | 21.30545 | 36090 ft | 431 kts | 287° |
| 2026-05-09 09:47 | 48.11461 | 21.22160 | 36089 ft | 431 kts | 286° |
| 2026-05-09 09:48 | 48.13579 | 21.13734 | 36109 ft | 433 kts | 287° |
| 2026-05-09 09:48 | 48.15701 | 21.05267 | 36146 ft | 435 kts | 287° |
| 2026-05-09 09:49 | 48.17806 | 20.96842 | 36165 ft | 434 kts | 287° |
| 2026-05-09 09:49 | 48.19907 | 20.88389 | 36177 ft | 431 kts | 287° |
| 2026-05-09 09:50 | 48.21989 | 20.79991 | 36176 ft | 428 kts | 287° |
| 2026-05-09 09:50 | 48.24048 | 20.71650 | 36150 ft | 425 kts | 287° |
| 2026-05-09 09:51 | 48.26083 | 20.63368 | 36129 ft | 422 kts | 287° |
| 2026-05-09 09:51 | 48.28104 | 20.55121 | 36117 ft | 420 kts | 287° |
| 2026-05-09 09:52 | 48.30112 | 20.46893 | 36131 ft | 421 kts | 286° |
| 2026-05-09 09:52 | 48.32137 | 20.38569 | 36144 ft | 428 kts | 287° |
| 2026-05-09 09:52 | 48.33314 | 20.34423 | 35965 ft | 432 kts | 291° |
| 2026-05-09 09:53 | 48.34587 | 20.30358 | 35708 ft | 430 kts | 292° |
| 2026-05-09 09:53 | 48.35895 | 20.26314 | 35466 ft | 430 kts | 292° |
| 2026-05-09 09:53 | 48.37205 | 20.22273 | 35219 ft | 429 kts | 292° |
| 2026-05-09 09:53 | 48.38495 | 20.18232 | 34972 ft | 428 kts | 291° |
| 2026-05-09 09:54 | 48.39765 | 20.14186 | 34726 ft | 427 kts | 291° |
| 2026-05-09 09:54 | 48.41027 | 20.10140 | 34480 ft | 426 kts | 291° |
| 2026-05-09 09:54 | 48.42288 | 20.06107 | 34233 ft | 426 kts | 291° |
| 2026-05-09 09:55 | 48.44818 | 19.98040 | 34154 ft | 426 kts | 291° |
| 2026-05-09 09:55 | 48.47339 | 19.89993 | 34156 ft | 425 kts | 291° |
| 2026-05-09 09:56 | 48.49829 | 19.81986 | 34158 ft | 424 kts | 291° |
| 2026-05-09 09:56 | 48.52349 | 19.73869 | 34158 ft | 424 kts | 291° |
| 2026-05-09 09:57 | 48.54843 | 19.65812 | 34169 ft | 424 kts | 291° |
| 2026-05-09 09:57 | 48.57316 | 19.57800 | 34189 ft | 423 kts | 291° |
| 2026-05-09 09:58 | 48.59808 | 19.49692 | 34193 ft | 423 kts | 291° |
| 2026-05-09 09:58 | 48.62260 | 19.41694 | 34191 ft | 422 kts | 291° |
| 2026-05-09 09:59 | 48.64715 | 19.33653 | 34188 ft | 421 kts | 291° |
| 2026-05-09 09:59 | 48.67160 | 19.25623 | 34175 ft | 420 kts | 291° |
| 2026-05-09 10:00 | 48.69612 | 19.17550 | 34162 ft | 419 kts | 291° |
| 2026-05-09 10:00 | 48.72023 | 19.09583 | 34155 ft | 418 kts | 291° |
| 2026-05-09 10:01 | 48.74434 | 19.01574 | 34146 ft | 418 kts | 291° |
| 2026-05-09 10:01 | 48.76843 | 18.93567 | 34138 ft | 417 kts | 291° |
| 2026-05-09 10:02 | 48.79159 | 18.85529 | 34133 ft | 416 kts | 289° |
| 2026-05-09 10:02 | 48.81290 | 18.77377 | 34131 ft | 415 kts | 288° |
| 2026-05-09 10:03 | 48.83405 | 18.69240 | 34149 ft | 414 kts | 289° |
| 2026-05-09 10:03 | 48.85528 | 18.61113 | 34142 ft | 414 kts | 289° |
| 2026-05-09 10:04 | 48.87639 | 18.52988 | 34161 ft | 413 kts | 289° |
| 2026-05-09 10:04 | 48.89737 | 18.44871 | 34174 ft | 412 kts | 289° |
| 2026-05-09 10:05 | 48.91827 | 18.36754 | 34169 ft | 412 kts | 289° |
| 2026-05-09 10:05 | 48.93912 | 18.28641 | 34165 ft | 412 kts | 289° |
| 2026-05-09 10:06 | 48.95991 | 18.20519 | 34145 ft | 411 kts | 289° |
| 2026-05-09 10:06 | 48.98059 | 18.12414 | 34131 ft | 410 kts | 289° |
| 2026-05-09 10:07 | 49.00105 | 18.04358 | 34122 ft | 406 kts | 289° |
| 2026-05-09 10:07 | 49.02117 | 17.96403 | 34139 ft | 406 kts | 289° |
| 2026-05-09 10:08 | 49.03868 | 17.88173 | 34160 ft | 410 kts | 285° |
| 2026-05-09 10:08 | 49.05508 | 17.79859 | 34168 ft | 410 kts | 285° |
| 2026-05-09 10:09 | 49.07163 | 17.71548 | 34174 ft | 410 kts | 285° |
| 2026-05-09 10:09 | 49.08822 | 17.63242 | 34178 ft | 410 kts | 285° |
| 2026-05-09 10:10 | 49.10466 | 17.54920 | 34183 ft | 410 kts | 285° |
| 2026-05-09 10:10 | 49.12106 | 17.46591 | 34185 ft | 410 kts | 285° |
| 2026-05-09 10:11 | 49.13740 | 17.38266 | 34170 ft | 409 kts | 285° |
| 2026-05-09 10:11 | 49.15365 | 17.29950 | 34155 ft | 408 kts | 285° |
| 2026-05-09 10:12 | 49.16974 | 17.21671 | 34146 ft | 405 kts | 285° |
| 2026-05-09 10:12 | 49.18566 | 17.13451 | 34141 ft | 402 kts | 285° |
| 2026-05-09 10:13 | 49.20157 | 17.05180 | 34174 ft | 409 kts | 285° |
| 2026-05-09 10:13 | 49.21763 | 16.96823 | 34174 ft | 410 kts | 285° |
| 2026-05-09 10:14 | 49.23361 | 16.88458 | 34179 ft | 410 kts | 284° |
| 2026-05-09 10:14 | 49.24956 | 16.80079 | 34180 ft | 410 kts | 284° |
| 2026-05-09 10:15 | 49.26268 | 16.73160 | 33814 ft | 405 kts | 284° |
| 2026-05-09 10:15 | 49.27050 | 16.69019 | 33276 ft | 404 kts | 284° |
| 2026-05-09 10:15 | 49.27829 | 16.64885 | 32762 ft | 403 kts | 284° |
| 2026-05-09 10:15 | 49.28602 | 16.60770 | 32256 ft | 401 kts | 284° |
| 2026-05-09 10:16 | 49.29370 | 16.56676 | 31750 ft | 400 kts | 284° |
| 2026-05-09 10:16 | 49.30383 | 16.51266 | 31084 ft | 397 kts | 284° |
| 2026-05-09 10:16 | 49.31142 | 16.47208 | 30606 ft | 395 kts | 284° |
| 2026-05-09 10:16 | 49.31649 | 16.44488 | 30281 ft | 393 kts | 284° |
| 2026-05-09 10:17 | 49.32398 | 16.40461 | 29761 ft | 392 kts | 284° |
| 2026-05-09 10:17 | 49.33141 | 16.36453 | 29263 ft | 390 kts | 284° |
| 2026-05-09 10:17 | 49.33879 | 16.32463 | 28772 ft | 388 kts | 284° |
| 2026-05-09 10:17 | 49.34611 | 16.28502 | 28286 ft | 385 kts | 284° |
| 2026-05-09 10:18 | 49.35339 | 16.24562 | 27825 ft | 382 kts | 284° |
| 2026-05-09 10:18 | 49.36059 | 16.20653 | 27345 ft | 380 kts | 284° |
| 2026-05-09 10:18 | 49.36772 | 16.16768 | 26842 ft | 378 kts | 284° |
| 2026-05-09 10:18 | 49.37482 | 16.12891 | 26356 ft | 376 kts | 284° |
| 2026-05-09 10:19 | 49.38184 | 16.09051 | 25889 ft | 373 kts | 284° |
| 2026-05-09 10:19 | 49.38881 | 16.05232 | 25423 ft | 370 kts | 284° |
| 2026-05-09 10:19 | 49.39562 | 16.01490 | 24959 ft | 367 kts | 284° |
| 2026-05-09 10:19 | 49.40246 | 15.97726 | 24480 ft | 365 kts | 284° |
| 2026-05-09 10:20 | 49.41051 | 15.93987 | 23985 ft | 364 kts | 292° |
| 2026-05-09 10:20 | 49.42136 | 15.90554 | 23531 ft | 362 kts | 296° |
| 2026-05-09 10:20 | 49.43312 | 15.87160 | 23080 ft | 359 kts | 297° |
| 2026-05-09 10:20 | 49.44504 | 15.83810 | 22630 ft | 356 kts | 297° |
| 2026-05-09 10:21 | 49.45677 | 15.80466 | 22146 ft | 354 kts | 296° |
| 2026-05-09 10:21 | 49.46822 | 15.77119 | 21665 ft | 353 kts | 296° |
| 2026-05-09 10:21 | 49.47945 | 15.73784 | 21212 ft | 350 kts | 296° |
| 2026-05-09 10:21 | 49.49059 | 15.70471 | 20763 ft | 348 kts | 296° |
| 2026-05-09 10:22 | 49.50172 | 15.67176 | 20317 ft | 346 kts | 296° |
| 2026-05-09 10:22 | 49.51281 | 15.63903 | 19849 ft | 344 kts | 296° |
| 2026-05-09 10:22 | 49.52385 | 15.60644 | 19390 ft | 343 kts | 296° |
| 2026-05-09 10:22 | 49.53482 | 15.57399 | 18935 ft | 341 kts | 296° |
| 2026-05-09 10:23 | 49.54572 | 15.54166 | 18481 ft | 339 kts | 296° |
| 2026-05-09 10:23 | 49.55656 | 15.50947 | 18036 ft | 338 kts | 296° |
| 2026-05-09 10:23 | 49.56733 | 15.47748 | 17610 ft | 335 kts | 296° |
| 2026-05-09 10:23 | 49.57801 | 15.44566 | 17151 ft | 334 kts | 296° |
| 2026-05-09 10:24 | 49.58863 | 15.41395 | 16692 ft | 332 kts | 296° |
| 2026-05-09 10:24 | 49.59923 | 15.38233 | 16234 ft | 331 kts | 296° |
| 2026-05-09 10:24 | 49.60975 | 15.35089 | 15797 ft | 329 kts | 296° |
| 2026-05-09 10:24 | 49.62021 | 15.31963 | 15372 ft | 327 kts | 296° |
| 2026-05-09 10:25 | 49.63059 | 15.28855 | 14917 ft | 326 kts | 296° |
| 2026-05-09 10:25 | 49.64093 | 15.25753 | 14453 ft | 325 kts | 296° |
| 2026-05-09 10:25 | 49.65122 | 15.22664 | 14008 ft | 323 kts | 296° |
| 2026-05-09 10:25 | 49.66145 | 15.19590 | 13580 ft | 321 kts | 296° |
| 2026-05-09 10:26 | 49.67162 | 15.16528 | 13152 ft | 319 kts | 296° |
| 2026-05-09 10:26 | 49.68169 | 15.13492 | 12727 ft | 317 kts | 296° |
| 2026-05-09 10:26 | 49.69158 | 15.10509 | 12235 ft | 316 kts | 296° |
| 2026-05-09 10:26 | 49.70161 | 15.07501 | 11726 ft | 314 kts | 297° |
| 2026-05-09 10:27 | 49.71359 | 15.04686 | 11258 ft | 312 kts | 305° |
| 2026-05-09 10:27 | 49.72672 | 15.02035 | 10815 ft | 309 kts | 307° |
| 2026-05-09 10:27 | 49.74007 | 14.99451 | 10383 ft | 306 kts | 307° |
| 2026-05-09 10:27 | 49.75318 | 14.96914 | 10137 ft | 297 kts | 307° |
| 2026-05-09 10:28 | 49.76564 | 14.94460 | 10003 ft | 284 kts | 307° |
| 2026-05-09 10:28 | 49.77756 | 14.92074 | 9726 ft | 278 kts | 306° |
| 2026-05-09 10:28 | 49.78933 | 14.89705 | 9294 ft | 278 kts | 306° |
| 2026-05-09 10:28 | 49.80112 | 14.87323 | 8956 ft | 278 kts | 307° |
| 2026-05-09 10:29 | 49.81285 | 14.84953 | 8540 ft | 278 kts | 306° |
| 2026-05-09 10:29 | 49.82453 | 14.82581 | 8186 ft | 277 kts | 306° |
| 2026-05-09 10:29 | 49.83612 | 14.80215 | 7853 ft | 274 kts | 306° |
| 2026-05-09 10:29 | 49.84750 | 14.77877 | 7525 ft | 271 kts | 306° |
| 2026-05-09 10:30 | 49.85881 | 14.75544 | 7095 ft | 271 kts | 306° |
| 2026-05-09 10:30 | 49.87039 | 14.73192 | 6556 ft | 277 kts | 307° |
| 2026-05-09 10:30 | 49.88195 | 14.70849 | 6259 ft | 272 kts | 307° |
| 2026-05-09 10:30 | 49.89334 | 14.68540 | 5859 ft | 270 kts | 307° |
| 2026-05-09 10:31 | 49.90477 | 14.66247 | 5652 ft | 262 kts | 307° |
| 2026-05-09 10:31 | 49.91562 | 14.64050 | 5522 ft | 251 kts | 307° |
| 2026-05-09 10:31 | 49.92607 | 14.61911 | 5236 ft | 248 kts | 307° |
| 2026-05-09 10:31 | 49.93649 | 14.59783 | 4942 ft | 245 kts | 307° |